createdAt,value
2023-03-02T00:00:46.494Z,58.50
2023-03-02T00:01:46.497Z,51.77
2023-03-02T00:02:47.528Z,56.69
2023-03-02T00:03:46.513Z,57.03
2023-03-02T00:04:46.428Z,62.98
2023-03-02T00:05:46.425Z,60.22
2023-03-02T00:06:46.414Z,57.70
2023-03-02T00:07:46.388Z,58.13
2023-03-02T00:08:46.380Z,51.17
2023-03-02T00:09:46.389Z,65.42
2023-03-02T00:10:46.455Z,49.55
2023-03-02T00:11:46.367Z,50.76
2023-03-02T00:12:46.357Z,65.15
2023-03-02T00:13:46.336Z,65.40
2023-03-02T00:14:46.321Z,62.63
2023-03-02T00:15:46.350Z,63.92
2023-03-02T00:16:46.298Z,62.16
2023-03-02T00:17:46.310Z,62.89
2023-03-02T00:18:46.304Z,61.28
2023-03-02T00:19:46.272Z,59.36
2023-03-02T00:20:46.257Z,65.14
2023-03-02T00:21:46.231Z,64.53
2023-03-02T00:22:46.254Z,64.10
2023-03-02T00:23:46.232Z,61.26
2023-03-02T00:24:46.231Z,59.48
2023-03-02T00:25:46.213Z,56.91
2023-03-02T00:26:46.192Z,63.94
2023-03-02T00:27:46.180Z,62.25
2023-03-02T00:28:46.150Z,61.75
2023-03-02T00:29:46.154Z,60.18
2023-03-02T00:30:46.163Z,58.61
2023-03-02T00:31:46.205Z,60.08
2023-03-02T00:32:46.164Z,68.11
2023-03-02T00:33:46.129Z,59.62
2023-03-02T00:34:46.127Z,63.80
2023-03-02T00:35:46.099Z,62.24
2023-03-02T00:36:46.095Z,57.50
2023-03-02T00:37:46.057Z,55.69
2023-03-02T00:38:46.054Z,49.64
2023-03-02T00:39:46.033Z,62.31
2023-03-02T00:40:46.047Z,60.92
2023-03-02T00:41:46.021Z,62.18
2023-03-02T00:42:46.012Z,64.96
2023-03-02T00:43:46.001Z,67.90
2023-03-02T00:44:45.968Z,58.22
2023-03-02T00:45:45.986Z,65.19
2023-03-02T00:46:45.998Z,60.96
2023-03-02T00:47:45.965Z,61.01
2023-03-02T00:48:45.937Z,61.10
2023-03-02T00:49:45.925Z,59.80
2023-03-02T00:50:45.901Z,63.45
2023-03-02T00:51:45.924Z,58.57
2023-03-02T00:52:45.905Z,61.91
2023-03-02T00:53:45.897Z,59.47
2023-03-02T00:54:45.849Z,59.80
2023-03-02T00:55:45.885Z,57.53
2023-03-02T00:56:45.861Z,60.51
2023-03-02T00:57:45.833Z,63.81
2023-03-02T00:58:45.858Z,63.16
2023-03-02T00:59:45.814Z,63.41
2023-03-02T01:00:45.831Z,57.75
2023-03-02T01:01:45.782Z,56.44
2023-03-02T01:02:45.911Z,60.16
2023-03-02T01:03:45.763Z,61.65
2023-03-02T01:04:45.756Z,62.99
2023-03-02T01:05:45.763Z,64.33
2023-03-02T01:06:45.750Z,61.44
2023-03-02T01:07:45.726Z,61.91
2023-03-02T01:08:45.698Z,61.83
2023-03-02T01:09:45.736Z,67.24
2023-03-02T01:10:45.700Z,56.96
2023-03-02T01:11:45.719Z,67.46
2023-03-02T01:12:45.700Z,64.57
2023-03-02T01:13:45.662Z,57.30
2023-03-02T01:14:45.644Z,59.34
2023-03-02T01:15:45.783Z,55.33
2023-03-02T01:16:45.644Z,61.54
2023-03-02T01:17:45.614Z,56.04
2023-03-02T01:18:45.592Z,59.79
2023-03-02T01:19:45.608Z,63.98
2023-03-02T01:20:45.586Z,68.43
2023-03-02T01:21:45.591Z,54.93
2023-03-02T01:22:46.597Z,46.92
2023-03-02T01:23:45.578Z,49.79
2023-03-02T01:24:45.538Z,67.51
2023-03-02T01:25:45.585Z,58.75
2023-03-02T01:26:45.530Z,55.77
2023-03-02T01:27:45.524Z,65.08
2023-03-02T01:28:46.520Z,57.46
2023-03-02T01:29:45.493Z,51.62
2023-03-02T01:30:45.456Z,54.90
2023-03-02T01:31:45.480Z,47.50
2023-03-02T01:32:45.474Z,54.58
2023-03-02T01:33:45.436Z,58.15
2023-03-02T01:34:45.428Z,62.93
2023-03-02T01:35:45.406Z,59.03
2023-03-02T01:36:45.435Z,62.61
2023-03-02T01:37:45.400Z,61.62
2023-03-02T01:38:45.468Z,53.53
2023-03-02T01:39:45.374Z,63.83
2023-03-02T01:40:45.356Z,61.44
2023-03-02T01:41:45.342Z,54.55
2023-03-02T01:42:45.463Z,59.92
2023-03-02T01:43:45.328Z,61.13
2023-03-02T01:44:45.307Z,63.10
2023-03-02T01:45:45.495Z,61.70
2023-03-02T01:46:46.283Z,52.14
2023-03-02T01:47:45.288Z,64.61
2023-03-02T01:48:45.403Z,63.83
2023-03-02T01:49:45.264Z,49.54
2023-03-02T01:50:45.260Z,55.36
2023-03-02T01:51:45.246Z,65.22
2023-03-02T01:52:45.234Z,61.68
2023-03-02T01:53:45.188Z,59.14
2023-03-02T01:54:45.199Z,57.78
2023-03-02T01:55:45.189Z,60.16
2023-03-02T01:56:45.189Z,58.78
2023-03-02T01:57:45.175Z,56.33
2023-03-02T01:58:45.209Z,58.70
2023-03-02T01:59:45.141Z,62.84
2023-03-02T02:00:45.136Z,66.71
2023-03-02T02:01:45.136Z,65.66
2023-03-02T02:02:45.161Z,64.38
2023-03-02T02:03:45.161Z,62.50
2023-03-02T02:04:45.086Z,56.77
2023-03-02T02:05:45.089Z,59.67
2023-03-02T02:06:45.261Z,60.92
2023-03-02T02:07:45.060Z,53.39
2023-03-02T02:08:45.048Z,59.50
2023-03-02T02:09:45.040Z,53.61
2023-03-02T02:10:45.046Z,59.62
2023-03-02T02:11:45.028Z,54.55
2023-03-02T02:12:45.002Z,60.36
2023-03-02T02:13:45.017Z,64.17
2023-03-02T02:14:45.004Z,61.87
2023-03-02T02:15:45.032Z,64.99
2023-03-02T02:16:45.066Z,66.09
2023-03-02T02:17:44.993Z,58.50
2023-03-02T02:18:44.960Z,66.91
2023-03-02T02:19:44.916Z,52.57
2023-03-02T02:20:44.927Z,58.81
2023-03-02T02:21:44.939Z,63.99
2023-03-02T02:22:44.888Z,55.31
2023-03-02T02:23:44.870Z,62.73
2023-03-02T02:24:44.856Z,56.69
2023-03-02T02:25:45.881Z,63.05
2023-03-02T02:26:44.843Z,62.25
2023-03-02T02:27:44.819Z,54.06
2023-03-02T02:28:44.824Z,57.34
2023-03-02T02:29:44.836Z,54.47
2023-03-02T02:30:44.826Z,54.31
2023-03-02T02:31:44.839Z,60.62
2023-03-02T02:32:44.824Z,59.44
2023-03-02T02:33:44.778Z,63.98
2023-03-02T02:34:44.773Z,60.72
2023-03-02T02:35:44.809Z,65.51
2023-03-02T02:36:44.748Z,62.05
2023-03-02T02:37:44.716Z,64.35
2023-03-02T02:38:44.748Z,61.56
2023-03-02T02:39:44.733Z,68.35
2023-03-02T02:40:44.690Z,56.14
2023-03-02T02:41:44.753Z,63.41
2023-03-02T02:42:44.694Z,56.04
2023-03-02T02:43:44.689Z,64.21
2023-03-02T02:44:44.644Z,57.22
2023-03-02T02:45:44.681Z,62.20
2023-03-02T02:46:44.665Z,54.52
2023-03-02T02:47:44.622Z,66.31
2023-03-02T02:48:44.598Z,59.29
2023-03-02T02:49:44.621Z,59.35
2023-03-02T02:50:44.620Z,50.77
2023-03-02T02:51:44.618Z,63.16
2023-03-02T02:52:44.595Z,58.88
2023-03-02T02:53:44.554Z,63.62
2023-03-02T02:54:44.588Z,63.74
2023-03-02T02:55:44.549Z,59.00
2023-03-02T02:56:44.530Z,65.70
2023-03-02T02:57:44.514Z,58.24
2023-03-02T02:58:44.505Z,60.19
2023-03-02T02:59:45.525Z,56.37
2023-03-02T03:00:44.457Z,67.35
2023-03-02T03:01:44.521Z,63.34
2023-03-02T03:02:44.608Z,61.01
2023-03-02T03:03:44.441Z,54.03
2023-03-02T03:04:44.559Z,67.08
2023-03-02T03:05:45.455Z,59.83
2023-03-02T03:06:44.391Z,65.68
2023-03-02T03:07:44.393Z,58.82
2023-03-02T03:08:44.409Z,63.44
2023-03-02T03:09:45.263Z,59.60
2023-03-02T03:10:44.367Z,59.41
2023-03-02T03:11:44.402Z,59.57
2023-03-02T03:12:44.322Z,60.57
2023-03-02T03:13:44.351Z,64.85
2023-03-02T03:14:44.368Z,61.78
2023-03-02T03:15:44.361Z,59.06
2023-03-02T03:16:44.393Z,61.96
2023-03-02T03:17:44.290Z,57.21
2023-03-02T03:18:44.266Z,54.45
2023-03-02T03:19:44.326Z,60.66
2023-03-02T03:20:44.250Z,60.67
2023-03-02T03:21:45.359Z,58.00
2023-03-02T03:22:44.267Z,64.80
2023-03-02T03:23:44.215Z,57.70
2023-03-02T03:24:44.190Z,66.94
2023-03-02T03:25:44.201Z,63.55
2023-03-02T03:26:44.205Z,69.09
2023-03-02T03:27:45.206Z,64.47
2023-03-02T03:28:44.162Z,67.55
2023-03-02T03:29:44.150Z,68.58
2023-03-02T03:30:44.192Z,60.43
2023-03-02T03:31:44.105Z,62.43
2023-03-02T03:32:44.128Z,68.37
2023-03-02T03:33:44.099Z,63.41
2023-03-02T03:34:44.088Z,60.54
2023-03-02T03:35:44.101Z,65.34
2023-03-02T03:36:44.074Z,60.62
2023-03-02T03:37:44.052Z,69.21
2023-03-02T03:38:44.047Z,61.40
2023-03-02T03:39:44.071Z,65.46
2023-03-02T03:40:44.013Z,68.54
2023-03-02T03:41:44.046Z,62.92
2023-03-02T03:42:44.004Z,62.35
2023-03-02T03:43:44.012Z,70.35
2023-03-02T03:44:43.990Z,67.35
2023-03-02T03:45:44.024Z,63.14
2023-03-02T03:46:44.000Z,66.43
2023-03-02T03:47:43.951Z,67.77
2023-03-02T03:48:43.948Z,68.43
2023-03-02T03:49:43.958Z,69.80
2023-03-02T03:50:43.916Z,65.61
2023-03-02T03:51:43.925Z,66.42
2023-03-02T03:52:43.887Z,67.43
2023-03-02T03:53:43.891Z,71.80
2023-03-02T03:54:43.891Z,66.94
2023-03-02T03:55:43.874Z,69.79
2023-03-02T03:56:44.857Z,69.82
2023-03-02T03:57:43.824Z,60.61
2023-03-02T03:58:43.918Z,68.58
2023-03-02T03:59:43.842Z,66.57
2023-03-02T04:00:43.829Z,67.42
2023-03-02T04:01:43.831Z,70.90
2023-03-02T04:02:43.833Z,67.42
2023-03-02T04:03:43.827Z,70.35
2023-03-02T04:04:43.849Z,70.75
2023-03-02T04:05:43.824Z,68.97
2023-03-02T04:06:43.759Z,70.44
2023-03-02T04:07:43.782Z,65.96
2023-03-02T04:08:43.733Z,67.59
2023-03-02T04:09:43.734Z,73.01
2023-03-02T04:10:43.714Z,70.25
2023-03-02T04:11:43.744Z,70.10
2023-03-02T04:12:43.681Z,68.24
2023-03-02T04:13:43.674Z,72.88
2023-03-02T04:14:43.663Z,70.73
2023-03-02T04:15:46.957Z,71.10
2023-03-02T04:16:44.673Z,72.00
2023-03-02T04:17:43.652Z,72.18
2023-03-02T04:18:43.681Z,69.36
2023-03-02T04:19:43.621Z,71.24
2023-03-02T04:20:43.600Z,70.17
2023-03-02T04:21:43.577Z,70.71
2023-03-02T04:22:44.177Z,68.88
2023-03-02T04:23:43.566Z,73.07
2023-03-02T04:24:43.602Z,71.09
2023-03-02T04:25:43.569Z,72.73
2023-03-02T04:26:43.533Z,70.49
2023-03-02T04:27:43.498Z,73.16
2023-03-02T04:28:43.528Z,69.27
2023-03-02T04:29:43.538Z,70.69
2023-03-02T04:30:43.546Z,71.76
2023-03-02T04:31:43.526Z,72.65
2023-03-02T04:32:43.477Z,73.59
2023-03-02T04:33:43.443Z,74.08
2023-03-02T04:34:43.438Z,71.57
2023-03-02T04:35:43.554Z,73.44
2023-03-02T04:36:43.437Z,74.00
2023-03-02T04:37:43.433Z,70.57
2023-03-02T04:38:43.377Z,75.13
2023-03-02T04:39:43.430Z,74.84
2023-03-02T04:40:43.434Z,72.41
2023-03-02T04:41:43.384Z,75.15
2023-03-02T04:42:43.399Z,73.53
2023-03-02T04:43:43.360Z,74.08
2023-03-02T04:44:43.337Z,76.86
2023-03-02T04:45:43.364Z,73.24
2023-03-02T04:46:44.808Z,74.27
2023-03-02T04:47:44.320Z,74.74
2023-03-02T04:48:43.304Z,73.21
2023-03-02T04:49:43.282Z,74.19
2023-03-02T04:50:43.281Z,72.67
2023-03-02T04:51:43.306Z,74.19
2023-03-02T04:52:43.292Z,71.96
2023-03-02T04:53:43.275Z,73.64
2023-03-02T04:54:43.291Z,73.00
2023-03-02T04:55:43.257Z,73.26
2023-03-02T04:56:43.247Z,72.35
2023-03-02T04:57:43.260Z,75.10
2023-03-02T04:58:43.225Z,72.37
2023-03-02T04:59:44.091Z,73.05
2023-03-02T05:00:43.178Z,73.06
2023-03-02T05:01:43.181Z,73.59
2023-03-02T05:02:43.236Z,71.92
2023-03-02T05:03:43.179Z,72.40
2023-03-02T05:04:43.247Z,73.14
2023-03-02T05:05:43.159Z,73.40
2023-03-02T05:06:43.113Z,71.74
2023-03-02T05:07:43.137Z,73.93
2023-03-02T05:08:43.141Z,73.80
2023-03-02T05:09:43.138Z,74.33
2023-03-02T05:10:43.089Z,72.51
2023-03-02T05:11:43.087Z,72.83
2023-03-02T05:12:43.162Z,72.55
2023-03-02T05:13:43.061Z,74.87
2023-03-02T05:14:45.429Z,74.42
2023-03-02T05:15:43.022Z,74.21
2023-03-02T05:16:43.105Z,74.13
2023-03-02T05:17:43.214Z,74.86
2023-03-02T05:18:43.008Z,72.94
2023-03-02T05:19:43.004Z,75.64
2023-03-02T05:20:42.993Z,74.65
2023-03-02T05:21:42.954Z,75.14
2023-03-02T05:22:42.959Z,74.21
2023-03-02T05:23:42.945Z,75.46
2023-03-02T05:24:42.929Z,75.10
2023-03-02T05:25:42.942Z,75.10
2023-03-02T05:26:42.911Z,74.42
2023-03-02T05:27:42.933Z,74.15
2023-03-02T05:28:42.923Z,75.93
2023-03-02T05:29:42.908Z,75.67
2023-03-02T05:30:42.872Z,75.44
2023-03-02T05:31:42.974Z,75.62
2023-03-02T05:32:42.999Z,74.16
2023-03-02T05:33:42.846Z,76.22
2023-03-02T05:34:42.899Z,75.75
2023-03-02T05:35:42.952Z,76.20
2023-03-02T05:36:42.876Z,78.30
2023-03-02T05:37:42.874Z,77.24
2023-03-02T05:38:42.896Z,76.86
2023-03-02T05:39:42.826Z,77.47
2023-03-02T05:40:42.815Z,76.59
2023-03-02T05:41:42.773Z,78.09
2023-03-02T05:42:42.723Z,75.60
2023-03-02T05:43:42.716Z,76.72
2023-03-02T05:44:42.779Z,77.25
2023-03-02T05:45:42.748Z,75.75
2023-03-02T05:46:42.755Z,75.58
2023-03-02T05:47:42.721Z,76.43
2023-03-02T05:48:42.710Z,76.83
2023-03-02T05:49:42.665Z,76.19
2023-03-02T05:50:42.655Z,75.95
2023-03-02T05:51:42.730Z,76.59
2023-03-02T05:52:42.676Z,76.46
2023-03-02T05:53:42.699Z,77.37
2023-03-02T05:54:42.668Z,76.34
2023-03-02T05:55:42.644Z,77.44
2023-03-02T05:56:42.703Z,76.09
2023-03-02T05:57:42.611Z,76.27
2023-03-02T05:58:42.563Z,75.69
2023-03-02T05:59:42.695Z,77.13
2023-03-02T06:00:42.612Z,75.60
2023-03-02T06:01:42.688Z,75.74
2023-03-02T06:02:42.640Z,75.27
2023-03-02T06:03:42.551Z,74.49
2023-03-02T06:04:42.565Z,75.97
2023-03-02T06:05:42.680Z,75.29
2023-03-02T06:06:43.266Z,72.43
2023-03-02T06:07:43.202Z,75.21
2023-03-02T06:08:42.995Z,75.80
2023-03-02T06:09:43.266Z,76.55
2023-03-02T06:10:43.161Z,75.62
2023-03-02T06:11:42.542Z,75.72
2023-03-02T06:12:42.884Z,74.79
2023-03-02T06:13:43.655Z,76.95
2023-03-02T06:14:42.877Z,77.12
2023-03-02T06:15:42.758Z,78.18
2023-03-02T06:16:42.573Z,76.94
2023-03-02T06:17:42.446Z,76.38
2023-03-02T06:18:42.347Z,76.09
2023-03-02T06:19:42.417Z,76.04
2023-03-02T06:20:42.373Z,76.02
2023-03-02T06:21:42.413Z,76.40
2023-03-02T06:22:42.428Z,74.71
2023-03-02T06:23:42.424Z,75.28
2023-03-02T06:24:42.289Z,75.64
2023-03-02T06:25:42.434Z,75.17
2023-03-02T06:26:42.274Z,75.39
2023-03-02T06:27:42.340Z,74.94
2023-03-02T06:28:52.260Z,74.81
2023-03-02T06:29:44.385Z,76.22
2023-03-02T06:30:42.555Z,75.37
2023-03-02T06:31:42.338Z,77.20
2023-03-02T06:32:42.275Z,76.27
2023-03-02T06:33:42.318Z,75.59
2023-03-02T06:34:42.213Z,75.83
2023-03-02T06:35:42.343Z,76.99
2023-03-02T06:36:42.282Z,77.07
2023-03-02T06:37:44.175Z,75.66
2023-03-02T06:38:43.185Z,77.01
2023-03-02T06:39:42.280Z,76.86
2023-03-02T06:40:42.125Z,74.41
2023-03-02T06:41:42.148Z,76.43
2023-03-02T06:42:42.129Z,76.05
2023-03-02T06:43:42.060Z,73.87
2023-03-02T06:44:42.112Z,74.63
2023-03-02T06:45:42.135Z,74.98
2023-03-02T06:46:42.065Z,75.94
2023-03-02T06:47:42.050Z,74.57
2023-03-02T06:48:42.041Z,73.50
2023-03-02T06:49:42.035Z,74.37
2023-03-02T06:50:42.036Z,74.41
2023-03-02T06:51:42.025Z,75.75
2023-03-02T06:52:41.989Z,74.61
2023-03-02T06:53:42.005Z,74.70
2023-03-02T06:54:41.999Z,72.35
2023-03-02T06:55:42.219Z,73.97
2023-03-02T06:56:41.938Z,76.05
2023-03-02T06:57:41.938Z,74.03
2023-03-02T06:58:41.930Z,75.28
2023-03-02T06:59:41.917Z,74.51
2023-03-02T07:00:41.915Z,72.43
2023-03-02T07:01:41.975Z,74.67
2023-03-02T07:02:41.976Z,74.22
2023-03-02T07:03:41.910Z,75.52
2023-03-02T07:04:42.649Z,73.60
2023-03-02T07:05:42.737Z,77.34
2023-03-02T07:06:41.847Z,72.29
2023-03-02T07:07:41.856Z,73.61
2023-03-02T07:08:41.829Z,74.84
2023-03-02T07:09:41.791Z,73.99
2023-03-02T07:10:41.875Z,73.37
2023-03-02T07:11:41.775Z,73.92
2023-03-02T07:12:41.796Z,73.65
2023-03-02T07:13:41.761Z,74.59
2023-03-02T07:14:41.740Z,72.12
2023-03-02T07:15:41.735Z,73.44
2023-03-02T07:16:41.765Z,73.88
2023-03-02T07:17:41.721Z,73.83
2023-03-02T07:18:41.708Z,75.47
2023-03-02T07:19:41.728Z,75.47
2023-03-02T07:20:41.686Z,73.23
2023-03-02T07:21:41.690Z,73.23
2023-03-02T07:22:41.639Z,75.18
2023-03-02T07:23:41.669Z,72.83
2023-03-02T07:24:43.493Z,74.26
2023-03-02T07:25:41.656Z,74.46
2023-03-02T07:26:41.593Z,72.77
2023-03-02T07:27:41.617Z,72.84
2023-03-02T07:28:41.590Z,73.35
2023-03-02T07:29:41.569Z,71.65
2023-03-02T07:30:41.591Z,74.07
2023-03-02T07:31:41.585Z,71.95
2023-03-02T07:32:41.829Z,73.24
2023-03-02T07:33:41.511Z,72.42
2023-03-02T07:34:41.538Z,73.88
2023-03-02T07:35:41.531Z,70.86
2023-03-02T07:36:41.508Z,74.64
2023-03-02T07:37:41.562Z,73.35
2023-03-02T07:38:41.512Z,72.33
2023-03-02T07:39:41.499Z,71.89
2023-03-02T07:40:41.572Z,72.21
2023-03-02T07:41:41.430Z,72.35
2023-03-02T07:42:41.414Z,73.16
2023-03-02T07:43:41.449Z,73.19
2023-03-02T07:44:41.406Z,72.13
2023-03-02T07:45:41.396Z,72.17
2023-03-02T07:46:41.378Z,71.13
2023-03-02T07:47:41.368Z,73.68
2023-03-02T07:48:41.387Z,73.06
2023-03-02T07:49:41.365Z,71.91
2023-03-02T07:50:42.132Z,70.38
2023-03-02T07:51:41.369Z,73.86
2023-03-02T07:52:41.298Z,72.90
2023-03-02T07:53:41.300Z,70.68
2023-03-02T07:54:41.305Z,74.14
2023-03-02T07:55:41.309Z,69.53
2023-03-02T07:56:41.265Z,70.88
2023-03-02T07:57:41.276Z,71.89
2023-03-02T07:58:41.275Z,68.61
2023-03-02T07:59:41.236Z,71.89
2023-03-02T08:00:42.709Z,74.35
2023-03-02T08:01:42.222Z,72.93
2023-03-02T08:02:41.305Z,71.48
2023-03-02T08:03:41.196Z,71.59
2023-03-02T08:04:41.168Z,72.37
2023-03-02T08:05:41.210Z,69.05
2023-03-02T08:06:42.614Z,72.81
2023-03-02T08:07:42.190Z,72.29
2023-03-02T08:08:41.129Z,71.95
2023-03-02T08:09:41.168Z,73.21
2023-03-02T08:10:41.101Z,73.79
2023-03-02T08:11:41.139Z,74.66
2023-03-02T08:12:41.132Z,72.89
2023-03-02T08:13:41.086Z,73.09
2023-03-02T08:14:41.247Z,70.21
2023-03-02T08:15:41.104Z,72.33
2023-03-02T08:16:41.170Z,73.35
2023-03-02T08:17:41.046Z,72.15
2023-03-02T08:18:41.021Z,72.16
2023-03-02T08:19:40.992Z,75.03
2023-03-02T08:20:41.039Z,70.88
2023-03-02T08:21:41.015Z,70.27
2023-03-02T08:22:40.984Z,73.01
2023-03-02T08:23:40.994Z,72.16
2023-03-02T08:24:42.062Z,73.33
2023-03-02T08:25:40.931Z,70.46
2023-03-02T08:26:40.946Z,72.18
2023-03-02T08:27:40.935Z,72.45
2023-03-02T08:28:40.952Z,73.77
2023-03-02T08:29:40.922Z,71.96
2023-03-02T08:30:40.932Z,69.33
2023-03-02T08:31:40.938Z,74.64
2023-03-02T08:32:40.944Z,70.98
2023-03-02T08:33:40.877Z,72.88
2023-03-02T08:34:40.842Z,71.05
2023-03-02T08:35:41.246Z,73.17
2023-03-02T08:36:40.857Z,73.10
2023-03-02T08:37:40.833Z,70.10
2023-03-02T08:38:40.809Z,72.21
2023-03-02T08:39:40.794Z,72.77
2023-03-02T08:40:40.804Z,68.48
2023-03-02T08:41:40.789Z,71.39
2023-03-02T08:42:40.803Z,72.55
2023-03-02T08:43:40.737Z,69.21
2023-03-02T08:44:40.783Z,72.45
2023-03-02T08:45:40.797Z,70.88
2023-03-02T08:46:40.717Z,71.96
2023-03-02T08:47:40.735Z,73.89
2023-03-02T08:48:40.729Z,74.65
2023-03-02T08:49:40.721Z,70.36
2023-03-02T08:50:40.690Z,70.87
2023-03-02T08:51:40.667Z,68.20
2023-03-02T08:52:40.818Z,72.05
2023-03-02T08:53:40.691Z,70.38
2023-03-02T08:54:40.799Z,70.69
2023-03-02T08:55:40.660Z,75.14
2023-03-02T08:56:40.611Z,74.58
2023-03-02T08:57:40.662Z,73.53
2023-03-02T08:58:40.663Z,71.92
2023-03-02T08:59:40.652Z,73.93
2023-03-02T09:00:40.676Z,74.20
2023-03-02T09:01:40.727Z,72.89
2023-03-02T09:02:40.643Z,65.56
2023-03-02T09:03:40.560Z,71.14
2023-03-02T09:04:40.752Z,69.95
2023-03-02T09:05:40.578Z,72.83
2023-03-02T09:06:40.588Z,74.19
2023-03-02T09:07:40.564Z,73.54
2023-03-02T09:08:40.524Z,72.16
2023-03-02T09:09:40.548Z,73.20
2023-03-02T09:10:40.537Z,71.83
2023-03-02T09:11:40.537Z,72.09
2023-03-02T09:12:40.492Z,71.26
2023-03-02T09:13:40.547Z,68.58
2023-03-02T09:14:40.457Z,73.68
2023-03-02T09:15:40.437Z,72.43
2023-03-02T09:16:40.515Z,69.42
2023-03-02T09:17:40.474Z,70.32
2023-03-02T09:18:40.482Z,73.43
2023-03-02T09:19:42.118Z,73.83
2023-03-02T09:20:40.414Z,71.06
2023-03-02T09:21:40.381Z,71.06
2023-03-02T09:22:41.376Z,71.28
2023-03-02T09:23:40.380Z,71.71
2023-03-02T09:24:40.322Z,72.65
2023-03-02T09:25:40.342Z,71.71
2023-03-02T09:26:40.322Z,71.71
2023-03-02T09:27:40.345Z,70.69
2023-03-02T09:28:40.324Z,71.28
2023-03-02T09:29:40.302Z,72.06
2023-03-02T09:30:40.324Z,69.56
2023-03-02T09:31:40.266Z,73.29
2023-03-02T09:32:40.441Z,69.63
2023-03-02T09:33:40.288Z,72.11
2023-03-02T09:34:40.212Z,69.62
2023-03-02T09:35:40.271Z,70.06
2023-03-02T09:36:40.216Z,70.88
2023-03-02T09:37:40.693Z,71.73
2023-03-02T09:38:40.239Z,71.03
2023-03-02T09:39:40.264Z,72.83
2023-03-02T09:40:40.155Z,71.28
2023-03-02T09:41:40.233Z,69.63
2023-03-02T09:42:44.152Z,72.39
2023-03-02T09:43:41.165Z,72.65
2023-03-02T09:44:40.158Z,71.14
2023-03-02T09:45:40.183Z,73.24
2023-03-02T09:46:40.119Z,72.31
2023-03-02T09:47:40.146Z,69.11
2023-03-02T09:48:40.114Z,70.68
2023-03-02T09:49:40.087Z,73.31
2023-03-02T09:50:40.093Z,71.45
2023-03-02T09:51:40.039Z,67.88
2023-03-02T09:52:40.090Z,69.52
2023-03-02T09:53:39.997Z,72.23
2023-03-02T09:54:40.165Z,68.81
2023-03-02T09:55:40.014Z,71.32
2023-03-02T09:56:40.026Z,70.01
2023-03-02T09:57:39.959Z,71.89
2023-03-02T09:58:39.956Z,70.44
2023-03-02T09:59:39.923Z,71.26
2023-03-02T10:00:39.961Z,72.36
2023-03-02T10:01:39.956Z,72.02
2023-03-02T10:02:39.949Z,68.65
2023-03-02T10:03:40.032Z,70.91
2023-03-02T10:04:39.957Z,71.29
2023-03-02T10:05:39.843Z,70.23
2023-03-02T10:06:39.906Z,69.96
2023-03-02T10:07:39.901Z,69.38
2023-03-02T10:08:39.907Z,73.02
2023-03-02T10:09:39.881Z,73.52
2023-03-02T10:10:40.793Z,72.34
2023-03-02T10:11:39.791Z,69.55
2023-03-02T10:12:39.818Z,67.76
2023-03-02T10:13:39.797Z,71.83
2023-03-02T10:14:39.784Z,72.62
2023-03-02T10:15:39.742Z,71.13
2023-03-02T10:16:39.795Z,68.92
2023-03-02T10:17:39.731Z,70.04
2023-03-02T10:18:39.830Z,71.58
2023-03-02T10:19:39.848Z,70.94
2023-03-02T10:20:39.721Z,69.84
2023-03-02T10:21:39.790Z,71.27
2023-03-02T10:22:39.698Z,72.27
2023-03-02T10:23:39.721Z,72.18
2023-03-02T10:24:39.745Z,71.15
2023-03-02T10:25:39.616Z,70.83
2023-03-02T10:26:39.695Z,70.41
2023-03-02T10:27:39.674Z,70.40
2023-03-02T10:28:39.576Z,71.30
2023-03-02T10:29:39.642Z,71.55
2023-03-02T10:30:39.582Z,69.02
2023-03-02T10:31:39.607Z,70.10
2023-03-02T10:32:39.536Z,69.75
2023-03-02T10:33:40.562Z,71.44
2023-03-02T10:34:39.614Z,71.62
2023-03-02T10:35:39.601Z,71.82
2023-03-02T10:36:39.597Z,68.20
2023-03-02T10:37:39.529Z,69.62
2023-03-02T10:38:39.507Z,72.40
2023-03-02T10:39:39.492Z,72.00
2023-03-02T10:40:39.524Z,70.18
2023-03-02T10:41:40.694Z,69.15
2023-03-02T10:42:40.503Z,71.54
2023-03-02T10:43:39.483Z,69.48
2023-03-02T10:44:39.448Z,69.20
2023-03-02T10:45:39.507Z,70.29
2023-03-02T10:46:39.488Z,71.93
2023-03-02T10:47:39.397Z,71.70
2023-03-02T10:48:40.927Z,71.89
2023-03-02T10:49:40.457Z,70.94
2023-03-02T10:50:39.396Z,69.78
2023-03-02T10:51:39.355Z,69.46
2023-03-02T10:52:44.142Z,69.03
2023-03-02T10:53:40.352Z,70.88
2023-03-02T10:54:39.360Z,67.85
2023-03-02T10:55:39.289Z,71.17
2023-03-02T10:56:39.384Z,68.75
2023-03-02T10:57:39.265Z,71.20
2023-03-02T10:58:39.245Z,72.00
2023-03-02T10:59:39.286Z,71.21
2023-03-02T11:00:39.301Z,67.37
2023-03-02T11:01:39.350Z,70.94
2023-03-02T11:02:39.307Z,68.98
2023-03-02T11:03:39.238Z,68.53
2023-03-02T11:04:39.267Z,69.88
2023-03-02T11:05:39.205Z,71.74
2023-03-02T11:06:39.203Z,72.81
2023-03-02T11:07:39.201Z,68.92
2023-03-02T11:08:39.153Z,69.12
2023-03-02T11:09:39.157Z,69.21
2023-03-02T11:10:39.175Z,73.16
2023-03-02T11:11:39.191Z,70.81
2023-03-02T11:12:39.232Z,71.85
2023-03-02T11:13:39.155Z,70.44
2023-03-02T11:14:39.148Z,71.42
2023-03-02T11:15:39.119Z,74.12
2023-03-02T11:16:39.072Z,72.07
2023-03-02T11:17:39.170Z,70.25
2023-03-02T11:18:39.165Z,71.12
2023-03-02T11:19:39.059Z,72.38
2023-03-02T11:20:39.076Z,70.99
2023-03-02T11:21:39.018Z,71.37
2023-03-02T11:22:39.027Z,69.47
2023-03-02T11:23:39.046Z,69.72
2023-03-02T11:24:39.113Z,68.40
2023-03-02T11:25:39.099Z,71.31
2023-03-02T11:26:38.947Z,70.64
2023-03-02T11:27:38.968Z,71.72
2023-03-02T11:28:38.976Z,70.52
2023-03-02T11:29:38.973Z,68.63
2023-03-02T11:30:38.940Z,67.60
2023-03-02T11:31:38.970Z,71.10
2023-03-02T11:32:38.974Z,69.64
2023-03-02T11:33:38.941Z,71.89
2023-03-02T11:34:38.925Z,70.14
2023-03-02T11:35:49.149Z,70.35
2023-03-02T11:36:38.900Z,70.85
2023-03-02T11:37:38.854Z,72.34
2023-03-02T11:38:38.823Z,71.62
2023-03-02T11:39:46.423Z,67.47
2023-03-02T11:40:42.851Z,71.66
2023-03-02T11:41:38.796Z,70.52
2023-03-02T11:42:38.800Z,71.37
2023-03-02T11:43:38.817Z,68.72
2023-03-02T11:44:38.772Z,70.71
2023-03-02T11:45:38.752Z,71.75
2023-03-02T11:46:38.814Z,72.29
2023-03-02T11:47:38.732Z,70.74
2023-03-02T11:48:38.717Z,71.15
2023-03-02T11:49:38.684Z,71.06
2023-03-02T11:50:38.728Z,69.72
2023-03-02T11:51:42.381Z,72.01
2023-03-02T11:52:39.772Z,72.71
2023-03-02T11:53:38.708Z,69.66
2023-03-02T11:54:38.641Z,70.95
2023-03-02T11:55:38.788Z,72.79
2023-03-02T11:56:38.618Z,71.15
2023-03-02T11:57:39.699Z,70.83
2023-03-02T11:58:39.647Z,74.18
2023-03-02T11:59:38.623Z,70.89
2023-03-02T12:00:38.586Z,72.51
2023-03-02T12:01:39.820Z,72.37
2023-03-02T12:02:38.541Z,71.05
2023-03-02T12:03:38.608Z,71.03
2023-03-02T12:04:38.564Z,73.14
2023-03-02T12:05:38.618Z,70.22
2023-03-02T12:06:38.495Z,74.28
2023-03-02T12:07:38.495Z,71.71
2023-03-02T12:08:38.502Z,71.96
2023-03-02T12:09:38.455Z,70.53
2023-03-02T12:10:38.486Z,71.70
2023-03-02T12:11:38.506Z,72.15
2023-03-02T12:12:38.470Z,72.83
2023-03-02T12:13:38.471Z,72.26
2023-03-02T12:14:38.384Z,71.03
2023-03-02T12:15:39.807Z,71.68
2023-03-02T12:16:39.828Z,72.77
2023-03-02T12:17:39.460Z,71.33
2023-03-02T12:18:38.360Z,71.66
2023-03-02T12:19:38.793Z,72.23
2023-03-02T12:20:38.398Z,73.11
2023-03-02T12:21:38.333Z,74.18
2023-03-02T12:22:38.302Z,74.20
2023-03-02T12:23:38.358Z,71.19
2023-03-02T12:24:38.342Z,73.36
2023-03-02T12:25:38.281Z,73.93
2023-03-02T12:26:38.355Z,72.62
2023-03-02T12:27:38.295Z,70.48
2023-03-02T12:28:38.221Z,72.16
2023-03-02T12:29:38.269Z,72.73
2023-03-02T12:30:38.253Z,70.44
2023-03-02T12:31:38.296Z,72.55
2023-03-02T12:32:38.294Z,70.07
2023-03-02T12:33:38.231Z,74.80
2023-03-02T12:34:38.169Z,72.57
2023-03-02T12:35:38.241Z,72.21
2023-03-02T12:36:38.162Z,73.79
2023-03-02T12:37:38.166Z,72.77
2023-03-02T12:38:39.176Z,71.50
2023-03-02T12:39:38.109Z,71.36
2023-03-02T12:40:38.123Z,72.45
2023-03-02T12:41:38.180Z,73.00
2023-03-02T12:42:38.116Z,72.90
2023-03-02T12:43:38.158Z,73.65
2023-03-02T12:44:38.097Z,73.73
2023-03-02T12:45:38.694Z,71.65
2023-03-02T12:46:39.717Z,70.99
2023-03-02T12:47:39.233Z,71.89
2023-03-02T12:48:38.184Z,71.78
2023-03-02T12:49:38.126Z,71.79
2023-03-02T12:50:38.001Z,73.48
2023-03-02T12:51:38.122Z,72.37
2023-03-02T12:52:38.082Z,72.67